Date,TemperatureHighF,TemperatureAvgF,TemperatureLowF,DewpointHighF,DewpointAvgF,DewpointLowF,HumidityHigh,HumidityAvg,HumidityLow,PressureMaxIn,PressureMinIn,WindSpeedMaxMPH,WindSpeedAvgMPH,GustSpeedMaxMPH,PrecipitationSumIn
2013-1-1,26,22,16,17,11,7,71,62,51,30.11,29.96,8,1,16,0.00
2013-1-2,25,22,17,19,14,10,77,71,68,30.13,30.02,10,1,14,0.00
2013-1-3,28,24,18,23,17,10,81,75,67,30.09,29.97,12,2,19,0.00
2013-1-4,34,29,25,23,20,18,76,70,60,30.11,29.90,19,5,26,0.00
2013-1-5,36,27,15,29,21,12,90,79,62,30.21,29.93,8,1,16,0.00
2013-1-6,35,33,30,32,29,24,92,83,75,30.20,29.82,10,2,22,0.10
2013-1-7,38,32,29,24,22,20,79,68,53,30.29,30.06,14,3,24,0.00
2013-1-8,39,32,28,26,23,20,76,69,58,30.17,30.06,6,1,12,0.00
2013-1-9,45,39,30,32,28,23,80,65,46,30.36,29.92,25,6,32,0.01
2013-1-10,42,33,23,32,25,20,90,74,52,30.52,30.11,6,1,8,0.10
2013-1-11,53,44,35,50,42,32,95,90,78,30.10,29.66,8,2,18,0.58
2013-1-12,60,52,46,47,44,33,85,73,54,29.84,29.71,11,2,19,0.00
2013-1-13,46,37,27,38,34,24,94,91,69,29.97,29.72,17,1,19,0.53
2013-1-14,27,21,15,24,15,11,86,75,63,30.39,29.97,16,3,21,0.00
2013-1-15,28,20,11,18,13,8,87,77,57,30.41,30.12,3,0,7,0.02
2013-1-16,35,26,15,28,17,11,88,70,42,30.11,29.72,14,2,21,0.00
2013-1-17,33,27,16,28,18,3,79,67,49,30.26,29.87,14,2,21,0.00
2013-1-18,37,24,10,22,13,5,81,63,47,30.39,29.85,14,3,20,0.00
2013-1-19,46,41,37,34,29,21,71,61,52,29.84,29.43,18,5,28,0.00
2013-1-20,44,21,14,33,8,1,77,57,49,30.13,29.42,32,8,40,0.00
2013-1-21,15,11,3,10,1,-9,82,63,47,30.11,29.91,18,3,21,0.00
2013-1-22,9,4,-1,-1,-8,-14,70,57,46,30.25,30.07,18,3,20,0.00
2013-1-23,16,9,1,10,2,-6,83,72,61,30.26,30.04,8,1,13,0.00
2013-1-24,15,10,6,10,2,-2,83,70,49,30.57,30.09,6,0,10,0.01
2013-1-25,20,16,10,14,10,0,84,75,64,30.47,29.96,4,0,10,0.04
2013-1-26,27,20,9,16,13,5,85,75,55,30.40,30.00,7,1,11,0.23
2013-1-27,29,20,8,26,13,4,91,74,53,30.43,30.07,10,1,14,0.22
2013-1-28,43,36,28,42,35,26,96,93,89,30.09,29.76,12,2,16,0.39
2013-1-29,59,45,33,54,43,31,96,93,84,29.95,29.35,14,2,22,1.08
2013-1-30,59,48,32,55,45,26,96,92,77,29.34,29.00,19,2,24,0.75
2013-1-31,32,22,16,26,13,8,83,68,56,29.81,29.13,21,7,32,0.00
2013-2-1,18,15,10,11,6,0,79,68,56,30.19,29.82,17,4,20,0.00
2013-2-2,20,14,2,14,7,-2,82,74,64,30.14,29.92,13,1,16,0.00
2013-2-3,20,11,-1,12,4,-6,81,73,60,29.98,29.80,17,2,20,0.00
2013-2-4,22,17,11,13,10,4,80,74,67,29.97,29.85,3,0,6,0.00
2013-2-5,27,19,5,24,13,1,89,78,59,29.90,29.74,7,1,13,0.00
2013-2-6,30,22,10,18,12,6,86,67,50,30.24,29.91,6,0,10,0.01
2013-2-7,36,30,25,25,20,15,86,67,58,30.22,29.86,4,1,11,0.00
2013-2-8,29,24,16,27,20,12,93,86,75,30.31,29.77,8,1,13,0.31
2013-2-9,32,18,0,18,10,-5,87,71,43,30.42,30.22,6,0,8,0.08
2013-2-10,41,30,16,37,22,12,88,74,53,30.22,29.59,18,2,21,0.24
2013-2-11,45,38,32,42,31,24,90,76,60,29.75,29.44,24,7,31,0.01
2013-2-12,32,30,27,25,22,19,74,71,66,29.97,29.76,14,4,21,0.00
2013-2-13,38,30,27,25,22,19,84,73,59,29.86,29.66,9,1,13,0.00
2013-2-14,40,34,29,34,29,24,89,81,73,29.74,29.58,17,3,25,0.02
2013-2-15,30,26,22,25,15,11,81,65,52,30.06,29.76,14,3,19,0.00
2013-2-16,24,20,16,17,13,7,83,76,56,30.05,29.93,10,0,13,0.00
2013-2-17,22,14,7,11,4,1,81,64,43,30.17,30.02,8,1,13,0.00
2013-2-18,46,30,14,34,18,4,67,60,47,30.16,29.49,20,3,22,0.00
2013-2-19,46,30,18,40,23,10,89,76,63,29.84,29.29,22,7,33,0.15
2013-2-20,22,19,15,13,10,6,76,66,56,30.20,29.84,18,5,25,0.00
2013-2-21,23,19,16,18,11,8,85,71,58,30.36,30.19,7,1,12,0.00
2013-2-22,33,26,22,31,23,16,93,86,77,30.24,29.81,8,1,14,0.10
2013-2-23,33,30,26,31,23,19,92,75,62,29.85,29.79,11,2,19,0.00
2013-2-24,36,28,20,27,22,16,89,78,56,30.09,29.82,11,1,14,0.07
2013-2-25,41,27,13,25,19,10,89,72,48,30.19,30.05,2,0,6,0.02
2013-2-26,36,31,24,31,25,20,94,80,65,30.08,29.49,12,2,20,0.19
2013-2-27,36,34,33,35,33,31,96,95,94,29.50,29.41,3,0,8,0.45
2013-2-28,34,32,28,32,28,22,96,87,75,29.92,29.48,8,2,13,0.10
2013-3-1,28,25,23,23,19,17,81,78,74,30.08,29.92,10,1,11,0.00
2013-3-2,25,23,20,19,17,15,83,77,73,30.05,30.01,7,1,11,0.00
2013-3-3,26,22,16,16,13,11,79,70,60,30.01,29.95,7,1,12,0.00
2013-3-4,33,22,10,15,12,6,85,67,39,30.10,30.00,8,0,9,0.00
2013-3-5,33,25,14,23,18,10,86,76,62,30.10,29.83,10,1,12,0.00
2013-3-6,40,32,26,29,25,21,89,78,60,30.15,29.85,6,1,10,0.00
2013-3-7,33,31,24,30,25,18,92,78,55,30.35,30.14,5,0,12,0.00
2013-3-8,45,30,18,26,21,15,89,72,46,30.45,30.35,5,0,7,0.00
2013-3-9,46,35,24,31,27,22,92,72,50,30.36,29.96,8,1,15,0.01
2013-3-10,60,50,39,42,36,30,76,59,43,29.95,29.68,10,2,19,0.01
2013-3-11,58,50,38,48,43,31,94,78,49,29.70,29.36,11,3,19,0.34
2013-3-12,38,34,30,32,27,22,87,75,57,29.83,29.57,16,4,20,0.00
2013-3-13,33,28,24,26,17,10,87,64,38,30.13,29.79,20,4,26,0.00
2013-3-14,38,30,22,20,16,11,73,57,37,30.20,30.00,10,2,14,0.00
2013-3-15,38,34,31,30,27,16,86,74,54,30.00,29.79,11,2,18,0.00
2013-3-16,31,28,25,26,23,20,89,81,69,29.97,29.74,7,1,11,0.05
2013-3-17,29,24,19,22,13,7,81,62,43,30.24,29.96,8,1,11,0.02
2013-3-18,34,28,19,32,22,11,93,78,65,30.17,29.49,8,2,13,0.01
2013-3-19,34,26,22,30,19,12,87,74,58,29.85,29.51,21,7,32,0.01
2013-3-20,26,23,17,16,12,8,71,62,51,29.88,29.82,16,5,24,0.00
2013-3-21,30,24,16,25,17,8,84,76,66,29.87,29.79,14,3,19,0.01
2013-3-22,36,28,25,21,18,16,74,64,51,29.97,29.85,12,2,19,0.00
2013-3-23,36,30,24,23,22,19,83,70,57,30.05,29.96,4,0,6,0.00
2013-3-24,37,28,19,27,21,16,91,76,49,30.02,29.63,13,2,16,0.00
2013-3-25,38,34,31,28,25,22,74,68,57,29.85,29.56,8,2,14,0.00
2013-3-26,42,36,32,31,28,25,85,73,55,30.03,29.86,7,1,13,0.00
2013-3-27,45,38,29,27,25,22,78,61,44,30.12,30.03,16,3,20,0.00
2013-3-28,51,40,32,28,24,21,73,55,32,30.19,30.12,13,2,13,0.00
2013-3-29,52,40,27,23,21,18,76,50,27,30.22,30.13,11,1,12,0.00
2013-3-30,55,42,24,29,21,13,85,49,19,30.15,29.83,10,1,16,0.00
2013-3-31,56,46,40,41,34,28,84,63,43,29.83,29.52,18,3,21,0.01
2013-4-1,40,30,26,33,15,8,87,53,33,30.03,29.60,18,4,24,0.00
2013-4-2,39,30,21,18,12,6,81,50,28,30.19,30.02,18,3,26,0.00
2013-4-3,42,31,21,15,12,8,69,48,28,30.38,30.18,8,1,16,0.00
2013-4-4,56,42,28,20,15,12,62,36,19,30.29,29.85,17,2,21,0.00
2013-4-5,47,39,30,31,22,16,80,51,32,30.15,29.86,8,1,17,0.00
2013-4-6,49,39,28,22,19,16,70,48,28,30.18,29.67,17,3,22,0.00
2013-4-7,58,47,33,46,34,21,82,62,30,29.98,29.47,21,5,29,0.00
2013-4-8,59,42,29,53,37,26,93,84,61,29.99,29.61,17,3,25,0.32
2013-4-9,50,43,40,44,41,37,95,90,71,30.02,29.82,8,1,16,1.43
2013-4-10,40,39,36,39,37,32,96,94,83,29.96,29.82,14,1,17,1.21
2013-4-11,38,36,34,34,33,32,93,90,82,29.94,29.61,8,3,16,0.55
2013-4-12,42,37,34,37,34,32,95,88,70,29.67,29.47,13,2,18,0.50
2013-4-13,41,38,35,38,30,23,92,72,50,29.91,29.67,21,5,28,0.07
2013-4-14,47,39,30,33,29,25,87,66,52,30.04,29.87,7,1,13,0.00
2013-4-15,68,56,41,54,44,32,84,63,49,29.86,29.76,13,3,25,0.01
2013-4-16,60,52,45,55,41,32,93,69,38,30.17,29.76,17,2,20,0.08
2013-4-17,57,45,38,42,34,30,93,67,44,30.30,29.96,8,1,13,0.56
2013-4-18,77,58,44,62,53,41,95,84,59,29.97,29.42,21,3,26,0.67
2013-4-19,60,44,32,57,38,27,95,79,56,29.65,29.22,29,6,31,0.90
2013-4-20,37,33,28,29,20,14,84,59,46,30.39,29.65,20,5,28,0.00
2013-4-21,48,36,23,28,22,17,92,60,31,30.57,30.40,14,1,16,0.00
2013-4-22,62,48,31,34,27,22,88,50,24,30.40,30.12,7,1,12,0.00
2013-4-23,68,56,45,53,40,32,91,57,36,30.11,29.73,16,2,18,0.23
2013-4-24,49,39,34,46,34,26,93,83,53,30.04,29.70,11,2,17,0.53
2013-4-25,50,42,34,37,30,24,87,62,36,30.26,29.99,19,3,25,0.07
2013-4-26,60,46,29,36,29,24,92,55,28,30.37,30.23,12,2,17,0.00
2013-4-27,72,58,41,40,34,28,78,45,22,30.25,30.03,10,1,13,0.00
2013-4-28,63,53,45,52,45,35,95,75,49,30.02,29.75,6,0,14,0.19
2013-4-29,70,60,53,53,52,49,96,77,47,29.85,29.75,6,1,8,0.02
2013-4-30,73,63,55,55,53,51,91,71,47,29.98,29.82,14,2,21,0.28
2013-5-1,82,70,54,56,52,48,87,57,32,30.12,29.96,11,2,16,0.00
2013-5-2,79,68,56,54,48,44,76,51,33,30.15,30.03,12,2,18,0.00
2013-5-3,76,67,57,53,42,29,57,41,18,30.04,29.97,10,1,13,0.00
2013-5-4,72,64,53,46,40,31,64,42,23,30.04,29.97,10,1,13,0.00
2013-5-5,74,61,46,44,37,25,81,47,17,30.03,29.95,8,1,14,0.00
2013-5-6,77,60,43,48,40,32,89,53,25,29.99,29.88,5,0,10,0.00
2013-5-7,77,63,46,52,46,38,78,54,34,29.98,29.90,7,0,12,0.00
2013-5-8,81,65,49,52,46,39,89,54,25,29.94,29.83,3,0,7,0.00
2013-5-9,81,66,49,56,48,39,93,59,25,29.88,29.78,6,0,8,0.01
2013-5-10,66,50,41,57,46,38,94,87,55,29.82,29.68,6,1,14,0.38
2013-5-11,63,46,38,48,40,32,93,79,48,29.81,29.60,19,2,26,0.05
2013-5-12,46,40,34,33,28,23,81,64,49,30.02,29.76,19,4,26,0.00
2013-5-13,53,42,30,30,24,20,75,51,27,30.10,30.02,13,1,16,0.00
2013-5-14,69,54,42,46,37,27,70,53,38,30.02,29.63,7,1,17,0.00
2013-5-15,80,68,53,56,48,38,80,52,24,29.68,29.45,9,3,24,0.01
2013-5-16,80,63,47,46,42,35,88,51,22,29.96,29.68,10,1,11,0.00
2013-5-17,66,56,42,46,41,38,87,60,40,30.08,29.96,7,0,10,0.00
2013-5-18,79,65,54,49,44,40,75,51,27,30.08,29.94,6,1,11,0.00
2013-5-19,86,71,51,61,53,47,87,57,34,29.96,29.76,6,0,8,0.00
2013-5-20,89,73,63,69,62,58,95,73,37,29.81,29.63,11,1,29,0.52
2013-5-21,84,73,63,67,61,57,96,69,41,29.71,29.60,14,1,20,0.00
2013-5-22,79,68,63,65,62,58,92,81,51,29.63,29.49,10,1,30,0.08
2013-5-23,63,50,41,60,48,38,92,91,88,30.09,29.56,8,1,13,0.38
2013-5-24,57,46,38,40,35,31,91,68,45,30.31,30.09,9,1,11,0.00
2013-5-25,62,49,33,40,36,28,94,64,28,30.34,30.22,7,0,10,0.00
2013-5-26,68,52,35,42,35,31,95,59,27,30.28,30.16,6,0,10,0.00
2013-5-27,68,53,38,48,38,28,92,64,23,30.19,29.94,7,1,13,0.00
2013-5-28,72,60,51,68,58,48,96,94,85,29.94,29.69,5,0,8,1.34
2013-5-29,80,72,62,68,64,60,96,79,56,29.87,29.65,14,2,17,0.70
2013-5-30,86,73,62,71,64,60,95,75,49,29.93,29.85,9,1,21,0.01
2013-5-31,82,75,69,70,65,63,92,72,57,29.87,29.73,11,1,18,0.38
2013-6-1,78,71,65,66,63,60,93,76,55,29.76,29.57,9,1,14,0.14
2013-6-2,68,62,51,62,53,40,82,73,65,29.91,29.52,12,3,22,0.00
2013-6-3,67,54,40,47,40,36,92,62,36,30.00,29.92,7,1,13,0.00
2013-6-4,70,58,44,45,42,39,94,61,32,30.13,30.00,3,0,7,0.00
2013-6-5,70,59,51,51,44,39,80,57,37,30.11,29.93,6,0,11,0.01
2013-6-6,66,58,53,52,49,46,87,72,58,29.95,29.80,5,0,11,0.05
2013-6-7,62,55,50,52,50,48,92,82,67,29.85,29.80,6,0,8,0.00
2013-6-8,72,61,51,55,52,48,92,73,48,29.99,29.83,2,0,4,0.00
2013-6-9,75,65,53,56,53,49,93,67,49,30.03,29.86,8,1,17,0.00
2013-6-10,71,65,58,67,61,48,96,87,49,29.86,29.64,5,0,8,1.11
2013-6-11,79,70,62,64,62,60,96,78,55,29.78,29.68,12,1,13,0.00
2013-6-12,77,68,60,67,63,58,95,84,63,29.82,29.57,8,0,11,0.07
2013-6-13,76,68,61,64,58,52,96,73,44,29.84,29.50,8,1,14,0.87
2013-6-14,75,64,55,57,50,41,89,64,31,30.00,29.84,8,1,11,0.00
2013-6-15,77,65,53,61,55,50,94,72,47,29.98,29.83,4,0,12,0.00
2013-6-16,80,71,64,64,60,52,94,71,40,29.80,29.64,11,2,20,0.35
2013-6-17,82,68,58,63,57,51,92,69,37,29.84,29.70,11,1,27,0.13
2013-6-18,69,61,51,56,47,38,93,65,32,30.01,29.83,7,1,12,0.02
2013-6-19,76,61,43,52,44,39,95,60,30,30.11,30.01,7,0,8,0.00
2013-6-20,82,68,50,56,51,47,93,59,31,30.12,30.04,5,0,10,0.00
2013-6-21,85,70,55,65,58,52,91,67,44,30.10,29.93,7,0,8,0.00
2013-6-22,90,79,68,70,64,58,83,63,42,29.97,29.85,10,1,16,0.00
2013-6-23,90,80,70,70,66,59,93,66,36,29.92,29.84,8,1,18,0.00
2013-6-24,88,78,69,69,66,63,94,68,47,29.92,29.79,11,1,14,0.55
2013-6-25,79,71,67,70,66,64,95,85,64,29.86,29.71,7,1,17,0.22
2013-6-26,86,75,66,70,66,63,94,75,51,29.76,29.63,5,0,12,0.01
2013-6-27,85,72,65,70,67,64,96,86,58,29.65,29.53,3,0,8,0.87
2013-6-28,76,68,64,66,64,61,96,88,61,29.56,29.42,8,1,12,0.21
2013-6-29,75,68,63,62,59,56,94,76,57,29.65,29.45,6,0,11,0.00
2013-6-30,79,68,59,61,56,46,92,67,45,29.88,29.65,7,0,10,0.00
2013-7-1,70,62,53,56,51,46,84,69,52,30.01,29.88,7,0,8,0.02
2013-7-2,77,65,57,61,56,49,92,73,50,30.00,29.94,5,0,11,0.06
2013-7-3,85,71,58,67,61,56,94,74,47,30.00,29.94,6,0,12,0.00
2013-7-4,81,73,66,67,61,54,95,68,41,30.01,29.95,10,1,13,0.00
2013-7-5,86,74,65,65,61,57,89,66,38,30.01,29.93,5,0,6,0.00
2013-7-6,86,75,66,69,66,64,95,75,49,29.99,29.88,5,0,10,0.00
2013-7-7,81,74,69,70,68,66,94,83,63,29.92,29.84,6,0,9,0.41
2013-7-8,84,74,70,74,68,65,92,82,67,29.91,29.86,10,0,20,0.11
2013-7-9,88,76,69,71,69,67,95,80,49,29.88,29.74,11,1,21,0.06
2013-7-10,87,78,65,74,67,54,94,72,46,29.84,29.64,16,2,18,0.00
2013-7-11,78,67,56,57,55,51,93,67,41,29.99,29.84,5,0,13,0.00
2013-7-12,81,67,53,61,56,51,96,72,42,30.08,29.99,4,0,8,0.00
2013-7-13,85,72,58,64,57,48,96,64,29,30.11,30.05,5,0,8,0.00
2013-7-14,90,76,62,69,65,60,95,71,43,30.16,30.11,6,0,6,0.00
2013-7-15,90,78,68,75,70,66,95,78,56,30.19,30.12,3,0,8,0.00
2013-7-16,93,82,73,75,72,68,95,74,46,30.20,30.10,6,1,11,0.00
2013-7-17,94,83,72,76,71,69,91,69,45,30.16,30.02,10,1,13,0.00
2013-7-18,95,84,72,73,71,68,92,66,42,30.03,29.81,10,1,13,0.00
2013-7-19,93,85,78,72,70,61,80,61,38,29.82,29.56,20,3,22,0.00
2013-7-20,84,76,66,70,63,50,94,67,34,29.85,29.57,10,1,16,0.08
2013-7-21,82,69,57,61,56,51,91,65,41,29.92,29.83,6,0,6,0.00
2013-7-22,83,73,64,67,61,56,82,67,44,29.87,29.65,6,0,11,0.00
2013-7-23,79,70,62,69,62,49,91,78,51,29.79,29.56,10,1,17,0.28
2013-7-24,73,63,53,52,49,46,86,62,43,29.98,29.79,7,0,10,0.00
2013-7-25,78,63,48,55,50,46,95,67,33,30.03,29.96,5,0,7,0.00
2013-7-26,79,68,56,61,56,53,93,68,44,30.00,29.81,7,0,11,0.05
2013-7-27,75,66,57,64,61,50,94,84,64,29.80,29.62,16,1,18,0.88
2013-7-28,66,57,49,56,51,46,92,80,56,29.87,29.72,11,1,16,0.22
2013-7-29,70,61,55,56,54,52,94,79,56,30.08,29.86,10,1,17,0.12
2013-7-30,78,65,51,59,54,49,96,71,39,30.15,30.02,5,0,7,0.00
2013-7-31,68,65,62,65,62,58,96,92,80,30.03,29.79,3,0,5,0.77
2013-8-1,76,66,60,64,60,54,96,84,46,29.82,29.77,10,1,14,0.08
2013-8-2,61,57,54,55,54,52,95,88,79,29.83,29.79,1,0,3,0.00
2013-8-3,76,70,59,57,54,51,77,56,42,29.96,29.89,7,1,9,0.00
2013-8-4,73,62,53,55,52,50,92,72,46,30.09,29.97,6,0,10,0.00
2013-8-5,71,62,53,58,52,46,89,71,42,30.03,29.87,6,0,11,0.00
2013-8-6,77,69,62,65,62,55,90,79,65,29.87,29.77,5,0,10,0.02
2013-8-7,84,72,63,70,66,61,96,82,54,29.80,29.70,13,1,19,0.87
2013-8-8,77,68,61,69,59,53,95,74,49,29.93,29.80,8,0,8,0.00
2013-8-9,80,69,55,59,56,50,96,67,39,29.90,29.83,11,1,16,0.00
2013-8-10,77,67,57,60,55,51,95,68,42,30.05,29.90,5,0,8,0.00
2013-8-11,76,67,57,61,57,53,92,72,46,30.03,29.94,6,0,11,0.00
2013-8-12,71,65,59,65,62,56,94,88,78,29.96,29.75,5,0,12,0.01
2013-8-13,67,61,54,64,50,43,95,68,44,29.97,29.75,13,1,17,0.00
2013-8-14,72,59,48,51,47,44,90,69,39,30.08,29.97,8,0,11,0.00
2013-8-15,74,61,47,54,50,45,95,68,42,30.09,29.99,7,0,12,0.00
2013-8-16,80,65,50,57,52,48,96,69,34,30.11,30.01,6,0,7,0.00
2013-8-17,80,66,51,59,53,42,96,68,27,30.18,30.10,5,0,9,0.00
2013-8-18,82,67,52,63,56,50,96,72,38,30.15,30.01,4,0,7,0.00
2013-8-19,83,69,54,61,56,47,96,68,29,30.03,29.93,10,1,13,0.00
2013-8-20,86,72,57,64,60,55,95,70,41,30.03,29.95,7,1,17,0.00
2013-8-21,88,75,62,68,65,61,96,73,45,30.02,29.87,10,1,13,0.00
2013-8-22,82,75,68,67,64,58,87,70,52,29.95,29.81,6,1,13,0.00
2013-8-23,81,67,54,60,56,52,96,70,38,30.12,29.96,8,0,10,0.00
2013-8-24,83,67,51,60,53,46,96,66,28,30.23,30.12,3,0,7,0.00
2013-8-25,87,73,57,64,60,55,95,66,41,30.19,30.02,8,1,14,0.00
2013-8-26,84,77,70,74,66,61,90,69,56,30.03,29.85,10,1,14,0.27
2013-8-27,80,75,70,74,70,68,95,86,74,29.88,29.72,8,0,20,0.80
2013-8-28,83,75,68,73,70,66,96,87,64,29.92,29.69,6,0,8,0.01
2013-8-29,88,74,63,69,65,62,96,79,46,29.99,29.89,3,0,5,0.00
2013-8-30,87,77,67,72,67,64,96,75,50,29.89,29.61,13,1,20,0.00
2013-8-31,78,73,68,71,66,63,92,79,63,29.75,29.65,4,0,6,0.00
2013-9-1,78,66,60,70,64,59,96,91,71,29.77,29.62,1,0,4,0.04
2013-9-2,71,66,58,68,59,51,95,78,60,29.83,29.61,14,2,16,0.00
2013-9-3,75,64,56,54,52,50,89,66,41,29.92,29.82,11,1,14,0.00
2013-9-4,81,68,54,63,57,51,94,72,49,29.98,29.88,12,2,16,0.00
2013-9-5,70,60,49,61,49,41,90,70,38,30.18,29.98,11,0,12,0.00
2013-9-6,75,60,43,53,47,41,96,68,35,30.21,29.97,5,0,11,0.00
2013-9-7,76,68,60,69,60,48,90,75,61,29.97,29.78,5,0,10,0.10
2013-9-8,73,66,54,67,55,48,90,70,43,30.01,29.82,7,0,10,0.00
2013-9-9,79,65,50,68,58,47,93,80,66,29.99,29.77,5,0,8,0.00
2013-9-10,94,83,72,70,66,58,84,61,32,29.88,29.74,14,2,26,0.00
2013-9-11,89,80,72,69,66,62,78,63,46,29.90,29.80,11,2,14,0.00
2013-9-12,76,68,57,64,58,45,94,72,42,29.87,29.74,18,1,24,0.16
2013-9-13,58,53,41,46,42,36,89,68,46,30.07,29.87,12,1,13,0.00
2013-9-14,69,52,36,46,39,34,96,67,31,30.12,30.00,7,1,12,0.00
2013-9-15,63,54,48,54,48,44,94,80,55,30.04,29.98,12,0,12,0.08
2013-9-16,61,54,42,54,47,38,96,77,50,30.32,30.04,7,0,10,0.00
2013-9-17,67,50,33,50,41,32,96,76,40,30.36,30.15,6,0,10,0.00
2013-9-18,76,59,41,56,48,39,96,71,40,30.15,29.94,7,0,12,0.00
2013-9-19,80,68,57,67,61,54,94,80,60,29.94,29.79,5,0,11,0.00
2013-9-20,78,72,68,69,66,65,92,84,69,29.79,29.61,9,1,17,0.04
2013-9-21,67,61,53,65,53,43,94,75,51,29.79,29.57,7,1,16,0.00
2013-9-22,58,50,42,44,40,38,90,69,48,30.02,29.80,8,0,11,0.00
2013-9-23,59,48,36,46,41,35,96,79,56,30.13,30.03,4,0,7,0.00
2013-9-24,68,51,35,50,42,34,96,76,45,30.10,29.93,5,0,9,0.00
2013-9-25,73,54,38,56,45,37,96,76,36,29.95,29.87,5,0,7,0.00
2013-9-26,78,57,41,56,47,39,96,74,34,30.07,29.93,4,0,6,0.00
2013-9-27,76,58,43,57,48,41,96,74,39,30.16,30.06,6,0,10,0.00
2013-9-28,76,63,49,60,52,47,96,72,41,30.11,29.90,9,1,12,0.00
2013-9-29,66,61,58,61,56,53,95,84,67,29.90,29.83,3,0,6,0.21
2013-9-30,71,59,52,56,52,48,96,80,46,29.93,29.83,6,0,18,0.00
2013-10-1,75,62,48,61,55,47,97,82,58,29.90,29.81,10,1,18,0.00
2013-10-2,78,64,51,60,50,34,96,66,23,29.99,29.82,7,0,10,0.00
2013-10-3,80,66,49,64,57,46,91,75,57,29.98,29.80,10,0,10,0.00
2013-10-4,79,70,65,66,64,63,96,82,60,29.93,29.81,5,0,11,0.11
2013-10-5,73,67,64,67,64,62,96,91,80,29.93,29.75,6,0,8,0.32
2013-10-6,71,65,54,67,62,52,96,90,74,29.75,29.53,7,1,17,0.73
2013-10-7,59,52,45,52,46,42,95,81,57,30.02,29.57,10,1,17,0.07
2013-10-8,67,52,40,50,43,38,97,74,43,30.20,30.02,8,0,8,0.00
2013-10-9,70,55,43,54,45,41,96,71,42,30.25,30.13,5,0,10,0.00
2013-10-10,71,54,40,56,43,38,97,72,31,30.17,30.05,5,0,7,0.00
2013-10-11,72,54,38,52,42,35,96,70,27,30.10,29.99,3,0,6,0.00
2013-10-12,76,60,44,61,51,42,97,76,48,30.03,29.93,6,0,12,0.00
2013-10-13,65,58,47,57,46,38,88,67,38,30.27,29.97,10,1,13,0.00
2013-10-14,62,49,37,44,40,36,96,74,39,30.36,30.20,5,0,8,0.00
2013-10-15,65,52,36,60,47,34,96,85,67,30.21,29.71,7,1,14,0.15
2013-10-16,62,55,51,60,50,44,95,82,63,29.80,29.68,19,1,19,0.01
2013-10-17,52,50,46,50,48,44,96,94,91,29.80,29.65,10,0,14,0.27
2013-10-18,62,50,41,45,41,37,95,74,40,29.81,29.73,11,1,18,0.00
2013-10-19,51,46,40,44,39,32,94,80,48,29.79,29.63,10,1,16,0.13
2013-10-20,56,48,40,42,38,34,91,72,49,29.82,29.70,7,1,17,0.02
2013-10-21,56,51,43,48,42,34,89,72,58,29.75,29.70,14,2,21,0.06
2013-10-22,48,42,34,35,29,25,75,61,46,29.81,29.74,17,2,20,0.00
2013-10-23,45,39,33,34,30,22,92,70,40,29.85,29.75,8,1,16,0.00
2013-10-24,46,37,31,35,30,27,92,76,52,30.08,29.84,12,1,16,0.00
2013-10-25,46,38,31,33,29,25,93,70,45,30.24,29.98,13,1,20,0.00
2013-10-26,51,43,38,41,32,26,92,64,48,29.96,29.63,16,2,20,0.11
2013-10-27,51,40,32,34,31,29,91,71,49,29.98,29.89,7,0,10,0.00
2013-10-28,47,39,32,38,31,28,92,76,62,30.35,29.96,7,0,7,0.00
2013-10-29,45,40,35,36,32,28,88,71,61,30.39,30.18,4,0,6,0.00
2013-10-30,63,46,30,48,38,28,96,77,50,30.18,29.85,6,0,8,0.01
2013-10-31,61,59,53,60,57,48,96,95,82,29.86,29.00,8,1,14,1.11
2013-11-1,61,50,45,59,44,39,94,79,68,29.56,28.95,25,4,33,0.08
2013-11-2,46,42,33,44,40,31,96,91,80,30.05,29.56,7,0,12,0.28
2013-11-3,44,36,28,37,30,26,96,81,60,30.39,30.05,5,0,8,0.01
2013-11-4,48,40,30,35,28,24,85,65,39,30.41,30.20,10,2,18,0.00
2013-11-5,56,52,46,46,42,35,79,69,63,30.25,30.05,7,1,10,0.00
2013-11-6,57,52,42,53,46,37,94,79,57,30.06,29.66,29,3,29,0.24
2013-11-7,42,39,36,37,30,25,89,69,52,30.05,29.91,12,2,18,0.01
2013-11-8,44,36,29,28,26,23,85,67,44,30.19,30.03,8,1,12,0.00
2013-11-9,54,46,36,40,34,27,71,61,51,30.09,29.68,17,4,26,0.00
2013-11-10,47,42,32,33,30,26,81,62,48,30.18,29.79,18,3,22,0.00
2013-11-11,42,36,26,38,29,18,92,77,65,30.25,29.95,9,2,18,0.16
2013-11-12,32,27,22,20,16,12,79,64,49,30.48,30.25,11,2,17,0.01
2013-11-13,40,30,19,23,16,9,84,60,31,30.48,30.04,16,3,21,0.00
2013-11-14,52,41,32,27,20,17,55,44,35,30.05,29.85,11,3,19,0.00
2013-11-15,52,45,39,29,25,22,64,45,33,29.96,29.88,11,1,16,0.00
2013-11-16,57,46,32,52,40,27,89,77,62,30.02,29.68,17,2,19,0.00
2013-11-17,63,58,44,59,53,38,94,85,74,29.68,29.07,30,6,35,0.65
2013-11-18,46,40,35,40,29,22,79,65,58,30.05,29.30,26,8,34,0.00
2013-11-19,40,34,26,24,21,19,82,61,48,30.36,30.05,11,1,11,0.00
2013-11-20,45,33,22,31,24,20,92,74,41,30.39,30.17,8,1,18,0.00
2013-11-21,49,45,40,43,36,26,94,72,55,30.20,30.09,7,1,13,0.11
2013-11-22,44,38,27,43,35,22,96,88,68,30.29,30.05,11,1,13,0.08
2013-11-23,28,24,16,23,14,1,85,67,38,30.45,30.19,13,3,22,0.01
2013-11-24,23,18,14,13,8,5,77,64,46,30.54,30.33,11,2,14,0.00
2013-11-25,33,26,20,25,12,3,84,55,35,30.33,29.97,14,3,22,0.00
2013-11-26,33,31,29,28,26,24,89,83,78,30.01,29.86,7,1,12,0.00
2013-11-27,29,22,18,23,12,8,82,65,50,30.13,29.88,12,2,21,0.00
2013-11-28,27,21,15,20,15,8,85,78,65,30.37,30.13,2,0,6,0.00
2013-11-29,31,24,13,21,18,10,89,80,62,30.61,30.38,3,0,7,0.00
2013-11-30,44,36,24,28,24,19,81,64,49,30.49,30.00,10,2,14,0.00
2013-12-1,41,37,32,33,30,28,91,77,59,30.00,29.93,6,0,7,0.00
2013-12-2,37,32,25,28,24,20,87,75,53,29.94,29.83,2,0,3,0.00
2013-12-3,35,31,21,33,27,18,93,86,73,29.86,29.77,3,0,7,0.05
2013-12-4,57,44,35,52,42,33,96,91,83,29.82,29.50,13,1,17,0.09
2013-12-5,59,43,29,54,34,19,85,71,56,30.07,29.47,14,5,27,0.00
2013-12-6,29,24,19,19,14,8,69,64,57,30.34,30.06,9,1,14,0.00
2013-12-7,22,18,12,10,7,4,72,60,50,30.57,30.35,11,2,18,0.00
2013-12-8,26,18,9,22,10,4,86,73,54,30.56,29.94,7,0,11,0.00
2013-12-9,29,26,18,27,20,7,92,77,59,30.01,29.79,17,4,26,0.00
2013-12-10,20,16,8,14,6,0,81,66,42,30.12,29.87,22,4,22,0.00
2013-12-11,20,16,7,14,7,-2,81,68,52,30.39,30.11,15,2,20,0.00
2013-12-12,19,13,4,13,5,-2,80,70,48,30.40,30.09,17,2,21,0.00
2013-12-13,25,23,20,19,15,13,80,73,63,30.26,30.07,8,1,14,0.00
2013-12-14,21,19,17,18,15,12,89,84,75,30.25,29.78,6,1,12,0.00
2013-12-15,22,18,12,19,12,3,89,78,63,29.96,29.74,17,3,22,0.00
2013-12-16,21,13,6,8,3,-2,82,65,37,30.14,29.95,12,1,14,0.02
2013-12-17,28,22,14,23,18,9,88,82,70,29.97,29.78,11,1,14,0.00
2013-12-18,28,26,23,24,19,12,88,73,55,30.03,29.79,13,2,17,0.00
2013-12-19,39,32,26,32,25,15,92,75,57,29.93,29.75,6,0,10,0.12
2013-12-20,34,33,32,32,32,30,96,95,92,29.85,29.67,2,0,6,0.43
2013-12-21,33,32,32,32,31,30,96,96,95,29.80,29.63,6,0,8,0.58
2013-12-22,32,32,32,31,31,31,95,95,95,29.63,29.55,0,0,0,0.13
2013-12-23,26,24,20,24,21,16,93,89,82,30.24,29.92,0,0,0,0.00
2013-12-24,20,10,2,16,6,-3,87,81,74,30.51,30.23,0,0,0,0.00
2013-12-25,23,17,2,20,13,-2,89,84,81,30.48,30.04,0,0,0,0.00
2013-12-26,25,24,22,23,20,14,92,86,72,30.20,29.95,0,0,0,0.00
2013-12-27,36,30,25,31,27,21,92,88,80,30.25,29.93,10,0,11,0.05
2013-12-28,48,40,32,34,31,28,87,71,55,30.01,29.77,7,2,14,0.13
2013-12-29,42,33,18,31,24,10,89,71,60,29.95,29.61,12,2,13,0.00
2013-12-30,18,16,13,10,6,1,73,64,54,30.23,29.95,7,1,11,0.00
2013-12-31,18,15,11,12,8,2,83,73,58,30.28,29.99,13,3,20,0.00
2014-1-1,14,12,9,9,3,-2,82,69,54,30.37,30.24,6,0,7,0.00
2014-1-2,14,10,1,9,5,-6,83,78,68,30.25,30.09,20,2,20,0.00